createdAt,value
2022-12-23T00:01:54.881Z,98866.51
2022-12-23T00:04:22.139Z,98868.09
2022-12-23T00:06:49.451Z,98867.55
2022-12-23T00:09:17.012Z,98874.23
2022-12-23T00:12:12.535Z,98873.33
2022-12-23T00:14:57.321Z,98876.93
2022-12-23T00:17:25.080Z,98869.48
2022-12-23T00:19:52.001Z,98870.00
2022-12-23T00:22:19.201Z,98874.78
2022-12-23T00:24:46.345Z,98877.48
2022-12-23T00:27:13.364Z,98876.73
2022-12-23T00:29:40.454Z,98881.16
2022-12-23T00:32:07.682Z,98883.01
2022-12-23T00:34:34.656Z,98888.86
2022-12-23T00:37:01.685Z,98889.73
2022-12-23T00:39:47.289Z,98888.52
2022-12-23T00:42:33.376Z,98892.64
2022-12-23T00:45:15.971Z,98888.35
2022-12-23T00:48:00.820Z,98887.48
2022-12-23T00:50:28.274Z,98891.78
2022-12-23T00:52:55.274Z,98894.57
2022-12-23T00:55:22.397Z,98896.29
2022-12-23T00:57:49.656Z,98899.39
2022-12-23T01:00:18.182Z,98905.07
2022-12-23T01:03:03.195Z,98905.58
2022-12-23T01:05:39.843Z,98906.48
2022-12-23T01:08:08.452Z,98903.02
2022-12-23T01:10:37.625Z,98898.73
2022-12-23T01:13:04.781Z,98902.54
2022-12-23T01:15:32.145Z,98903.56
2022-12-23T01:17:59.112Z,98906.13
2022-12-23T01:20:26.318Z,98910.25
2022-12-23T01:22:53.566Z,98913.18
2022-12-23T01:25:20.611Z,98914.55
2022-12-23T01:27:47.596Z,98916.80
2022-12-23T01:30:15.304Z,98919.86
2022-12-23T01:32:42.404Z,98920.39
2022-12-23T01:35:10.199Z,98916.23
2022-12-23T01:37:37.388Z,98918.31
2022-12-23T01:40:05.289Z,98919.51
2022-12-23T01:42:47.863Z,98917.43
2022-12-23T01:45:20.585Z,98916.40
2022-12-23T01:47:53.359Z,98912.05
2022-12-23T01:50:25.194Z,98913.40
2022-12-23T01:53:00.495Z,98913.58
2022-12-23T01:55:36.076Z,98917.86
2022-12-23T01:58:09.989Z,98917.91
2022-12-23T02:00:56.103Z,98917.38
2022-12-23T02:03:40.787Z,98921.52
2022-12-23T02:06:27.658Z,98926.83
2022-12-23T02:09:12.315Z,98921.85
2022-12-23T02:11:56.037Z,98930.60
2022-12-23T02:14:56.721Z,98932.12
2022-12-23T02:17:32.462Z,98937.59
2022-12-23T02:20:26.910Z,98934.30
2022-12-23T02:23:20.218Z,98936.69
2022-12-23T02:26:03.552Z,98931.50
2022-12-23T02:28:54.017Z,98936.28
2022-12-23T02:31:29.290Z,98939.34
2022-12-23T02:34:02.461Z,98946.38
2022-12-23T02:36:40.362Z,98949.64
2022-12-23T02:39:12.008Z,98946.17
2022-12-23T02:41:49.970Z,98949.09
2022-12-23T02:44:35.291Z,98950.42
2022-12-23T02:47:05.843Z,98950.92
2022-12-23T02:49:38.019Z,98953.45
2022-12-23T02:52:11.511Z,98955.13
2022-12-23T02:54:45.253Z,98957.67
2022-12-23T02:57:15.965Z,98966.36
2022-12-23T02:59:48.093Z,98967.66
2022-12-23T03:02:15.356Z,98966.09
2022-12-23T03:04:43.221Z,98967.43
2022-12-23T03:07:18.658Z,98963.77
2022-12-23T03:09:59.521Z,98965.29
2022-12-23T03:12:34.769Z,98967.30
2022-12-23T03:15:14.019Z,98965.21
2022-12-23T03:17:58.692Z,98962.77
2022-12-23T03:20:29.742Z,98960.67
2022-12-23T03:23:04.974Z,98963.54
2022-12-23T03:25:37.114Z,98962.64
2022-12-23T03:28:12.055Z,98961.08
2022-12-23T03:30:43.204Z,98960.19
2022-12-23T03:33:16.611Z,98960.37
2022-12-23T03:35:49.725Z,98966.04
2022-12-23T03:38:20.341Z,98967.45
2022-12-23T03:40:51.081Z,98971.93
2022-12-23T03:43:24.549Z,98975.71
2022-12-23T03:45:55.376Z,98974.14
2022-12-23T03:48:28.261Z,98974.48
2022-12-23T03:51:01.968Z,98979.78
2022-12-23T03:53:33.964Z,98979.80
2022-12-23T03:56:05.583Z,98987.04
2022-12-23T03:58:39.606Z,98974.11
2022-12-23T04:01:19.193Z,98972.04
2022-12-23T04:03:56.321Z,98973.96
2022-12-23T04:06:25.761Z,98975.55
2022-12-23T04:08:53.800Z,98977.24
2022-12-23T04:11:21.267Z,98978.29
2022-12-23T04:13:49.840Z,98978.51
2022-12-23T04:16:17.388Z,98980.45
2022-12-23T04:18:44.572Z,98979.83
2022-12-23T04:21:11.751Z,98978.85
2022-12-23T04:23:40.506Z,98980.23
2022-12-23T04:26:07.704Z,98979.91
2022-12-23T04:28:34.849Z,98982.04
2022-12-23T04:31:01.886Z,98986.75
2022-12-23T04:33:28.878Z,98990.24
2022-12-23T04:35:56.154Z,98993.77
2022-12-23T04:38:23.186Z,98996.13
2022-12-23T04:40:50.145Z,98995.98
2022-12-23T04:43:17.384Z,98994.46
2022-12-23T04:45:44.433Z,98994.36
2022-12-23T04:48:11.512Z,98991.17
2022-12-23T04:50:38.741Z,98991.73
2022-12-23T04:53:05.778Z,98987.86
2022-12-23T04:55:32.727Z,98987.41
2022-12-23T04:57:59.978Z,98989.36
2022-12-23T05:00:27.244Z,98988.41
2022-12-23T05:02:54.364Z,98992.20
2022-12-23T05:05:22.586Z,98994.44
2022-12-23T05:07:51.697Z,98992.36
2022-12-23T05:10:19.049Z,98996.33
2022-12-23T05:12:46.158Z,99000.47
2022-12-23T05:15:14.186Z,99005.51
2022-12-23T05:17:41.275Z,99005.70
2022-12-23T05:20:11.438Z,99009.85
2022-12-23T05:22:38.454Z,99007.27
2022-12-23T05:25:06.136Z,99008.16
2022-12-23T05:27:33.474Z,99009.90
2022-12-23T05:30:00.546Z,99009.72
2022-12-23T05:32:27.722Z,99008.36
2022-12-23T05:34:55.142Z,99012.31
2022-12-23T05:37:22.884Z,99010.78
2022-12-23T05:39:49.930Z,99013.01
2022-12-23T05:42:19.512Z,99019.73
2022-12-23T05:44:46.544Z,99016.33
2022-12-23T05:47:14.039Z,99022.39
2022-12-23T05:49:41.105Z,99024.67
2022-12-23T05:52:08.550Z,99026.63
2022-12-23T05:54:35.680Z,99031.95
2022-12-23T05:57:02.869Z,99030.46
2022-12-23T05:59:31.543Z,99027.17
2022-12-23T06:01:59.114Z,99029.67
2022-12-23T06:04:26.697Z,99032.48
2022-12-23T06:06:53.926Z,99031.36
2022-12-23T06:09:21.061Z,99032.66
2022-12-23T06:11:48.247Z,99033.65
2022-12-23T06:14:15.655Z,99030.30
2022-12-23T06:16:42.784Z,99033.85
2022-12-23T06:19:09.887Z,99041.54
2022-12-23T06:21:36.913Z,99042.83
2022-12-23T06:24:03.999Z,99050.31
2022-12-23T06:26:31.309Z,99057.77
2022-12-23T06:28:58.279Z,99062.15
2022-12-23T06:31:25.354Z,99063.09
2022-12-23T06:33:52.759Z,99060.90
2022-12-23T06:36:20.071Z,99064.92
2022-12-23T06:38:47.163Z,99063.90
2022-12-23T06:41:14.625Z,99065.48
2022-12-23T06:43:42.097Z,99065.33
2022-12-23T06:46:09.311Z,99071.00
2022-12-23T06:48:36.889Z,99071.10
2022-12-23T06:51:04.040Z,99069.29
2022-12-23T06:53:31.203Z,99071.48
2022-12-23T06:56:04.292Z,99075.73
2022-12-23T06:58:32.050Z,99075.89
2022-12-23T07:00:59.429Z,99073.82
2022-12-23T07:03:26.711Z,99075.34
2022-12-23T07:05:54.438Z,99077.69
2022-12-23T07:08:22.199Z,99080.05
2022-12-23T07:10:50.153Z,99078.14
2022-12-23T07:13:17.990Z,99084.67
2022-12-23T07:15:45.303Z,99085.98
2022-12-23T07:18:12.284Z,99092.15
2022-12-23T07:20:39.263Z,99093.83
2022-12-23T07:23:06.418Z,99091.72
2022-12-23T07:25:33.385Z,99093.36
2022-12-23T07:28:00.631Z,99094.65
2022-12-23T07:30:28.802Z,99090.77
2022-12-23T07:32:56.151Z,99086.46
2022-12-23T07:35:23.088Z,99081.65
2022-12-23T07:37:55.544Z,99083.44
2022-12-23T07:40:23.135Z,99082.17
2022-12-23T07:42:55.299Z,99080.85
2022-12-23T07:45:22.852Z,99077.15
2022-12-23T07:47:53.332Z,99072.13
2022-12-23T07:50:20.716Z,99072.23
2022-12-23T07:52:47.990Z,99074.88
2022-12-23T07:55:15.158Z,99076.33
2022-12-23T07:57:42.402Z,99083.23
2022-12-23T08:00:14.251Z,99086.23
2022-12-23T08:02:42.232Z,99097.34
2022-12-23T08:05:11.010Z,99106.71
2022-12-23T08:07:38.385Z,99106.91
2022-12-23T08:10:05.836Z,99100.59
2022-12-23T08:12:33.264Z,99098.02
2022-12-23T08:15:00.231Z,99098.23
2022-12-23T08:17:31.870Z,99098.40
2022-12-23T08:19:59.044Z,99096.72
2022-12-23T08:22:26.065Z,99095.73
2022-12-23T08:24:53.662Z,99091.19
2022-12-23T08:27:22.536Z,99087.12
2022-12-23T08:29:49.683Z,99084.55
2022-12-23T08:32:16.741Z,99085.84
2022-12-23T08:34:44.357Z,99085.70
2022-12-23T08:37:11.480Z,99083.21
2022-12-23T08:39:38.566Z,99081.45
2022-12-23T08:42:05.822Z,99080.48
2022-12-23T08:44:33.088Z,99081.86
2022-12-23T08:47:00.149Z,99080.01
2022-12-23T08:49:27.286Z,99073.98
2022-12-23T08:51:54.349Z,99071.44
2022-12-23T08:54:22.413Z,99071.60
2022-12-23T08:56:49.662Z,99068.48
2022-12-23T08:59:19.908Z,99065.92
2022-12-23T09:01:47.689Z,99065.89
2022-12-23T09:04:14.929Z,99058.00
2022-12-23T09:06:43.490Z,99057.85
2022-12-23T09:09:12.112Z,99055.65
2022-12-23T09:11:39.847Z,99053.02
2022-12-23T09:14:08.871Z,99053.27
2022-12-23T09:16:36.089Z,99053.84
2022-12-23T09:19:03.844Z,99049.27
2022-12-23T09:21:31.196Z,99041.61
2022-12-23T09:23:58.388Z,99039.05
2022-12-23T09:26:27.684Z,99029.69
2022-12-23T09:28:56.816Z,99035.80
2022-12-23T09:31:32.586Z,99032.41
2022-12-23T09:34:03.158Z,99029.89
2022-12-23T09:36:30.477Z,99024.05
2022-12-23T09:38:59.562Z,99018.77
2022-12-23T09:41:42.916Z,99019.23
2022-12-23T09:44:34.851Z,99016.52
2022-12-23T09:47:06.295Z,99016.15
2022-12-23T09:49:33.834Z,99011.67
2022-12-23T09:52:05.535Z,99007.27
2022-12-23T09:54:42.516Z,99008.11
2022-12-23T09:57:19.822Z,99005.04
2022-12-23T10:00:02.765Z,98999.02
2022-12-23T10:02:44.105Z,99002.23
2022-12-23T10:05:23.770Z,99000.48
2022-12-23T10:07:54.459Z,98992.48
2022-12-23T10:10:30.534Z,98998.14
2022-12-23T10:12:59.830Z,98995.08
2022-12-23T10:15:31.167Z,98991.06
2022-12-23T10:18:03.721Z,98990.02
2022-12-23T10:20:40.472Z,98989.75
2022-12-23T10:23:12.201Z,98987.38
2022-12-23T10:25:47.723Z,98986.75
2022-12-23T10:28:16.342Z,98986.79
2022-12-23T10:31:17.321Z,98987.69
2022-12-23T10:33:43.409Z,98984.36
2022-12-23T10:36:21.107Z,98979.09
2022-12-23T10:39:00.836Z,98976.70
2022-12-23T10:41:39.241Z,98974.70
2022-12-23T10:44:25.876Z,98971.80
2022-12-23T10:47:03.059Z,98973.77
2022-12-23T10:49:43.493Z,98973.36
2022-12-23T10:52:16.699Z,98977.16
2022-12-23T10:54:46.488Z,98973.20
2022-12-23T10:57:16.037Z,98969.92
2022-12-23T10:59:43.155Z,98966.48
2022-12-23T11:02:29.521Z,98967.27
2022-12-23T11:04:56.788Z,98964.23
2022-12-23T11:07:43.879Z,98953.20
2022-12-23T11:10:19.485Z,98946.57
2022-12-23T11:12:49.291Z,98944.46
2022-12-23T11:15:31.183Z,98940.23
2022-12-23T11:18:17.674Z,98932.22
2022-12-23T11:20:47.021Z,98927.23
2022-12-23T11:23:27.070Z,98921.60
2022-12-23T11:26:03.797Z,98923.48
2022-12-23T11:28:31.708Z,98916.38
2022-12-23T11:31:05.678Z,98912.89
2022-12-23T11:33:35.785Z,98909.31
2022-12-23T11:36:15.993Z,98909.14
2022-12-23T11:38:52.282Z,98906.09
2022-12-23T11:41:24.854Z,98905.27
2022-12-23T11:43:58.916Z,98905.94
2022-12-23T11:46:30.610Z,98908.81
2022-12-23T11:49:18.660Z,98910.23
2022-12-23T11:51:46.586Z,98911.25
2022-12-23T11:54:19.368Z,98908.29
2022-12-23T11:56:49.879Z,98903.73
2022-12-23T11:59:32.458Z,98900.71
2022-12-23T12:02:03.206Z,98900.27
2022-12-23T12:04:35.374Z,98894.86
2022-12-23T12:07:04.921Z,98894.42
2022-12-23T12:09:33.995Z,98888.11
2022-12-23T12:12:07.014Z,98886.57
2022-12-23T12:14:42.873Z,98881.95
2022-12-23T12:17:17.642Z,98877.14
2022-12-23T12:19:58.169Z,98877.54
2022-12-23T12:22:33.909Z,98876.70
2022-12-23T12:25:06.408Z,98875.81
2022-12-23T12:27:40.683Z,98879.09
2022-12-23T12:30:13.711Z,98875.38
2022-12-23T12:32:48.142Z,98868.86
2022-12-23T12:35:20.092Z,98873.83
2022-12-23T12:37:53.157Z,98878.16
2022-12-23T12:40:29.318Z,98873.89
2022-12-23T12:43:01.025Z,98876.85
2022-12-23T12:45:34.928Z,98869.46
2022-12-23T12:48:18.755Z,98868.09
2022-12-23T12:50:55.722Z,98868.77
2022-12-23T12:53:23.942Z,98869.63
2022-12-23T12:55:57.254Z,98868.80
2022-12-23T12:58:25.784Z,98867.80
2022-12-23T13:01:04.787Z,98870.16
2022-12-23T13:03:51.487Z,98872.02
2022-12-23T13:06:28.166Z,98872.67
2022-12-23T13:09:06.079Z,98880.03
2022-12-23T13:11:45.544Z,98879.27
2022-12-23T13:14:24.354Z,98872.80
2022-12-23T13:17:01.557Z,98873.08
2022-12-23T13:19:35.781Z,98869.38
2022-12-23T13:22:10.193Z,98870.02
2022-12-23T13:24:47.518Z,98868.27
2022-12-23T13:27:20.630Z,98865.70
2022-12-23T13:30:06.504Z,98872.71
2022-12-23T13:33:05.403Z,98869.30
2022-12-23T13:35:44.805Z,98867.14
2022-12-23T13:38:24.698Z,98867.55
2022-12-23T13:41:00.544Z,98866.30
2022-12-23T13:43:37.172Z,98862.71
2022-12-23T13:46:10.626Z,98865.01
2022-12-23T13:48:42.130Z,98863.83
2022-12-23T13:51:18.945Z,98861.11
2022-12-23T13:54:03.871Z,98859.73
2022-12-23T13:56:41.172Z,98858.48
2022-12-23T13:59:13.719Z,98861.21
2022-12-23T14:01:47.933Z,98859.17
2022-12-23T14:04:34.607Z,98855.20
2022-12-23T14:07:04.183Z,98854.87
2022-12-23T14:09:37.160Z,98853.06
2022-12-23T14:12:24.259Z,98847.27
2022-12-23T14:15:05.875Z,98841.39
2022-12-23T14:17:43.143Z,98843.73
2022-12-23T14:20:29.830Z,98846.20
2022-12-23T14:23:07.605Z,98852.52
2022-12-23T14:25:53.128Z,98849.58
2022-12-23T14:28:43.795Z,98850.63
2022-12-23T14:31:32.149Z,98855.30
2022-12-23T14:34:06.087Z,98855.10
2022-12-23T14:36:33.523Z,98855.93
2022-12-23T14:39:32.739Z,98860.73
2022-12-23T14:42:06.506Z,98860.39
2022-12-23T14:44:51.811Z,98864.21
2022-12-23T14:47:40.442Z,98863.55
2022-12-23T14:50:42.576Z,98864.41
2022-12-23T14:53:24.776Z,98865.39
2022-12-23T14:56:10.757Z,98870.67
2022-12-23T14:59:03.675Z,98871.27
2022-12-23T15:01:39.005Z,98870.66
2022-12-23T15:04:17.145Z,98871.98
2022-12-23T15:06:46.600Z,98871.75
2022-12-23T15:09:24.230Z,98876.67
2022-12-23T15:11:51.817Z,98879.09
2022-12-23T15:14:29.834Z,98882.09
2022-12-23T15:16:56.970Z,98884.35
2022-12-23T15:19:26.442Z,98885.05
2022-12-23T15:22:17.880Z,98886.63
2022-12-23T15:24:48.580Z,98883.75
2022-12-23T15:27:30.220Z,98883.95
2022-12-23T15:29:58.322Z,98886.27
2022-12-23T15:32:26.772Z,98883.96
2022-12-23T15:34:58.320Z,98882.84
2022-12-23T15:37:30.177Z,98885.80
2022-12-23T15:40:04.851Z,98884.66
2022-12-23T15:42:38.539Z,98880.91
2022-12-23T15:45:28.085Z,98874.77
2022-12-23T15:47:55.201Z,98875.26
2022-12-23T15:50:22.693Z,98873.87
2022-12-23T15:52:51.800Z,98871.16
2022-12-23T15:55:24.859Z,98866.90
2022-12-23T15:57:53.433Z,98867.77
2022-12-23T16:00:25.316Z,98875.88
2022-12-23T16:03:04.760Z,98873.63
2022-12-23T16:05:37.598Z,98878.60
2022-12-23T16:08:29.782Z,98877.55
2022-12-23T16:11:08.037Z,98873.00
2022-12-23T16:13:36.230Z,98876.73
2022-12-23T16:16:31.436Z,98875.91
2022-12-23T16:18:58.672Z,98871.55
2022-12-23T16:21:29.331Z,98873.85
2022-12-23T16:23:57.120Z,98872.20
2022-12-23T16:26:25.620Z,98872.52
2022-12-23T16:28:56.320Z,98876.79
2022-12-23T16:31:25.189Z,98874.86
2022-12-23T16:33:55.592Z,98877.52
2022-12-23T16:36:34.034Z,98874.29
2022-12-23T16:39:13.094Z,98871.38
2022-12-23T16:41:40.659Z,98870.75
2022-12-23T16:44:07.996Z,98871.42
2022-12-23T16:46:38.776Z,98875.01
2022-12-23T16:49:11.029Z,98877.08
2022-12-23T16:51:40.439Z,98877.06
2022-12-23T16:54:07.977Z,98884.69
2022-12-23T16:56:37.920Z,98883.11
2022-12-23T16:59:05.432Z,98884.44
2022-12-23T17:01:34.699Z,98884.75
2022-12-23T17:04:02.927Z,98883.23
2022-12-23T17:06:30.283Z,98886.30
2022-12-23T17:08:57.921Z,98888.00
2022-12-23T17:11:32.489Z,98888.85
2022-12-23T17:14:04.630Z,98888.15
2022-12-23T17:16:32.947Z,98888.84
2022-12-23T17:19:00.249Z,98892.77
2022-12-23T17:21:34.114Z,98894.11
2022-12-23T17:24:07.698Z,98892.71
2022-12-23T17:26:34.805Z,98898.89
2022-12-23T17:29:04.661Z,98896.41
2022-12-23T17:31:32.870Z,98895.25
2022-12-23T17:34:00.041Z,98894.56
2022-12-23T17:36:27.341Z,98897.80
2022-12-23T17:38:54.575Z,98897.27
2022-12-23T17:41:27.936Z,98898.05
2022-12-23T17:43:55.092Z,98900.02
2022-12-23T17:46:23.096Z,98897.98
2022-12-23T17:48:50.364Z,98902.11
2022-12-23T17:51:19.393Z,98900.10
2022-12-23T17:53:47.495Z,98904.97
2022-12-23T17:56:19.266Z,98905.42
2022-12-23T17:58:48.183Z,98905.27
2022-12-23T18:01:22.475Z,98911.36
